M I D A S
Marine Information and Data Acquisition System
Tripno 1568 of the Zeeleeuw from 2008-09-17 07:01:29 to 2008-09-17 14:12:00
Back to CruiseResearch ActivitiesStationsMapUnderway DataData graphs

EquipmentUnitsComment
TimeDGPSUTC
LatitudeDGPSDM.mWGS84
LongitudeDGPSDM.mWGS84
HeadingGyrodeg 
SOGDGPSknotsSpeed over ground
COGDGPSdegCourse over ground
DepthEcho soundermeters200 kHz
Missing or incorrect values are displayed as -999
Navigation data collected by the RV Zeeleeuw from 2008-09-17 07:01:29 to 2008-09-17 14:12:00
                                                                                    Next 1000 lines
Time Latitude Longitude Heading SOG COG Depth
2008-09-17 07:01:40 51°13.631 2°56.02 112.5   325 -999
2008-09-17 07:01:50 51°13.635 2°56.007 112.5   325 -999
2008-09-17 07:02:00 51°13.639 2°55.993 114.5 3.6 296 -999
2008-09-17 07:02:10 51°13.644 2°55.977 114.5 3.6 296 -999
2008-09-17 07:02:20 51°13.648 2°55.961 114.5 3.6 296 -999
2008-09-17 07:02:30 51°13.654 2°55.944 114.5 3.6 296 -999
2008-09-17 07:02:40 51°13.66 2°55.927 114.5 3.6 296 -999
2008-09-17 07:02:50 51°13.666 2°55.909 114.5 3.6 296 -999
2008-09-17 07:03:00 51°13.673 2°55.891 122 4.79 302 -999
2008-09-17 07:03:10 51°13.68 2°55.872 122 4.79 302 -999
2008-09-17 07:03:20 51°13.688 2°55.854 122 4.79 302 -999
2008-09-17 07:03:30 51°13.696 2°55.835 122 4.79 302 -999
2008-09-17 07:03:40 51°13.705 2°55.817 122 4.79 302 -999
2008-09-17 07:03:50 51°13.713 2°55.798 122 4.79 302 -999
2008-09-17 07:04:00 51°13.722 2°55.779 128.9 5.29 309 -999
2008-09-17 07:04:10 51°13.732 2°55.761 128.9 5.29 309 -999
2008-09-17 07:04:20 51°13.742 2°55.744 128.9 5.29 309 -999
2008-09-17 07:04:30 51°13.752 2°55.727 128.9 5.29 309 -999
2008-09-17 07:04:40 51°13.763 2°55.71 128.9 5.29 309 -999
2008-09-17 07:04:50 51°13.774 2°55.695 128.9 5.29 309 -999
2008-09-17 07:05:00 51°13.785 2°55.678 143.5 5.29 323 -999
2008-09-17 07:05:10 51°13.798 2°55.667 143.5 5.29 323 -999
2008-09-17 07:05:20 51°13.811 2°55.656 143.5 5.29 323 -999
2008-09-17 07:05:30 51°13.824 2°55.646 143.5 5.29 323 -999
2008-09-17 07:05:40 51°13.837 2°55.638 143.5 5.29 323 -999
2008-09-17 07:05:50 51°13.85 2°55.633 143.5 5.29 323 -999
2008-09-17 07:06:00 51°13.863 2°55.629 176.3 4.7 353 -999
2008-09-17 07:06:10 51°13.875 2°55.629 176.3 4.7 353 -999
2008-09-17 07:06:20 51°13.886 2°55.629 176.3 4.7 353 -999
2008-09-17 07:06:30 51°13.896 2°55.631 176.3 4.7 353 -999
2008-09-17 07:06:40 51°13.905 2°55.633 176.3 4.7 353 -999
2008-09-17 07:06:50 51°13.914 2°55.637 176.3 4.7 353 -999
2008-09-17 07:07:00 51°13.921 2°55.641 209 2.89 22 -999
2008-09-17 07:07:10 51°13.928 2°55.647 209 2.89 22 -999
2008-09-17 07:07:20 51°13.934 2°55.652 209 2.89 22 -999
2008-09-17 07:07:30 51°13.936 2°55.653 209 2.89 22 -999
2008-09-17 07:07:40 51°13.936 2°55.648 209 2.89 22 -999
2008-09-17 07:07:50 51°13.936 2°55.638 209 2.89 22 -999
2008-09-17 07:08:00 51°13.937 2°55.625 267 3.2 284 -999
2008-09-17 07:08:10 51°13.941 2°55.611 267 3.2 284 -999
2008-09-17 07:08:20 51°13.946 2°55.599 267 3.2 284 -999
2008-09-17 07:08:30 51°13.952 2°55.588 267 3.2 284 -999
2008-09-17 07:08:40 51°13.96 2°55.577 267 3.2 284 -999
2008-09-17 07:08:50 51°13.968 2°55.567 267 3.2 284 -999
2008-09-17 07:09:00 51°13.976 2°55.558 322.8 3.79 325 -999
2008-09-17 07:09:10 51°13.985 2°55.548 322.8 3.79 325 -999
2008-09-17 07:09:20 51°13.995 2°55.539 322.8 3.79 325 -999
2008-09-17 07:09:30 51°14.004 2°55.53 322.8 3.79 325 -999
2008-09-17 07:09:40 51°14.015 2°55.52 322.8 3.79 325 -999
2008-09-17 07:09:50 51°14.027 2°55.509 322.8 3.79 325 -999
2008-09-17 07:10:00 51°14.038 2°55.497 328.8 5.2 328 -999
2008-09-17 07:10:10 51°14.051 2°55.484 328.8 5.2 328 -999
2008-09-17 07:10:20 51°14.064 2°55.47 328.8 5.2 328 -999
2008-09-17 07:10:30 51°14.077 2°55.457 328.8 5.2 328 -999
2008-09-17 07:10:40 51°14.091 2°55.444 328.8 5.2 328 -999
2008-09-17 07:10:50 51°14.105 2°55.431 328.8 5.2 328 -999
2008-09-17 07:11:00 51°14.12 2°55.416 330.8 6.5 329 -999
2008-09-17 07:11:10 51°14.137 2°55.399 330.8 6.5 329 -999
2008-09-17 07:11:20 51°14.156 2°55.38 330.8 6.5 329 -999
2008-09-17 07:11:30 51°14.176 2°55.358 330.8 6.5 329 -999
2008-09-17 07:11:40 51°14.196 2°55.334 330.8 6.5 329 -999
2008-09-17 07:11:50 51°14.217 2°55.307 330.8 6.5 329 -999
2008-09-17 07:12:00 51°14.239 2°55.279 324 10.19 319 -999
2008-09-17 07:12:10 51°14.26 2°55.247 324 10.19 319 -999
2008-09-17 07:12:20 51°14.281 2°55.213 324 10.19 319 -999
2008-09-17 07:12:30 51°14.302 2°55.176 324 10.19 319 -999
2008-09-17 07:12:40 51°14.32 2°55.142 324 10.19 319 -999
2008-09-17 07:12:50 51°14.342 2°55.098 324 10.19 319 -999
2008-09-17 07:13:00 51°14.362 2°55.056 309.6 11.8 306 -999
2008-09-17 07:13:10 51°14.38 2°55.013 309.6 11.8 306 -999
2008-09-17 07:13:20 51°14.399 2°54.97 309.6 11.8 306 -999
2008-09-17 07:13:30 51°14.421 2°54.93 309.6 11.8 306 -999
2008-09-17 07:13:40 51°14.444 2°54.893 309.6 11.8 306 -999
2008-09-17 07:13:50 51°14.469 2°54.858 309.6 11.8 306 -999
2008-09-17 07:14:00 51°14.493 2°54.827 323.1 12 323 -999
2008-09-17 07:14:10 51°14.522 2°54.793 323.1 12 323 -999
2008-09-17 07:14:20 51°14.55 2°54.767 323.1 12 323 -999
2008-09-17 07:14:30 51°14.578 2°54.741 323.1 12 323 -999
2008-09-17 07:14:40 51°14.606 2°54.714 323.1 12 323 -999
2008-09-17 07:14:50 51°14.634 2°54.687 323.1 12 323 -999
2008-09-17 07:15:00 51°14.661 2°54.657 334.1 11.8 326 -999
2008-09-17 07:15:10 51°14.688 2°54.629 334.1 11.8 326 -999
2008-09-17 07:15:20 51°14.715 2°54.601 334.1 11.8 326 -999
2008-09-17 07:15:30 51°14.743 2°54.574 334.1 11.8 326 -999
2008-09-17 07:15:40 51°14.771 2°54.547 334.1 11.8 326 -999
2008-09-17 07:15:50 51°14.799 2°54.52 334.1 11.8 326 -999
2008-09-17 07:16:00 51°14.827 2°54.493 335.6 11.69 329 -999
2008-09-17 07:16:10 51°14.854 2°54.467 335.6 11.69 329 -999
2008-09-17 07:16:20 51°14.882 2°54.441 335.6 11.69 329 -999
2008-09-17 07:16:30 51°14.91 2°54.414 335.6 11.69 329 -999
2008-09-17 07:16:40 51°14.937 2°54.389 335.6 11.69 329 -999
2008-09-17 07:16:50 51°14.965 2°54.363 335.6 11.69 329 -999
2008-09-17 07:17:00 51°14.992 2°54.338 336.1 11.4 330 -999
2008-09-17 07:17:10 51°15.02 2°54.314 336.1 11.4 330 -999
2008-09-17 07:17:20 51°15.048 2°54.29 336.1 11.4 330 -999
2008-09-17 07:17:30 51°15.076 2°54.267 336.1 11.4 330 -999
2008-09-17 07:17:40 51°15.104 2°54.244 336.1 11.4 330 -999
2008-09-17 07:17:50 51°15.133 2°54.22 336.1 11.4 330 -999
2008-09-17 07:18:00 51°15.161 2°54.196 339.3 11.59 332 -999
2008-09-17 07:18:10 51°15.189 2°54.171 339.3 11.59 332 -999
2008-09-17 07:18:20 51°15.217 2°54.145 339.3 11.59 332 -999
2008-09-17 07:18:30 51°15.245 2°54.118 339.3 11.59 332 -999
2008-09-17 07:18:40 51°15.273 2°54.09 339.3 11.59 332 -999
2008-09-17 07:18:50 51°15.3 2°54.063 339.3 11.59 332 -999
2008-09-17 07:19:00 51°15.328 2°54.036 336 11.69 329 -999
2008-09-17 07:19:10 51°15.355 2°54.009 336 11.69 329 -999
2008-09-17 07:19:20 51°15.383 2°53.982 336 11.69 329 -999
2008-09-17 07:19:30 51°15.411 2°53.956 336 11.69 329 -999
2008-09-17 07:19:40 51°15.44 2°53.93 336 11.69 329 -999
2008-09-17 07:19:50 51°15.468 2°53.905 336 11.69 329 -999
2008-09-17 07:20:00 51°15.496 2°53.879 338.6 11.69 330 -999
2008-09-17 07:20:10 51°15.524 2°53.854 338.6 11.69 330 -999
2008-09-17 07:20:20 51°15.552 2°53.828 338.6 11.69 330 -999
2008-09-17 07:20:30 51°15.58 2°53.802 338.6 11.69 330 -999
2008-09-17 07:20:40 51°15.609 2°53.777 338.6 11.69 330 -999
2008-09-17 07:20:50 51°15.637 2°53.751 338.6 11.69 330 -999
2008-09-17 07:21:00 51°15.663 2°53.729 338.6 11.69 331 -999
2008-09-17 07:21:10 51°15.694 2°53.701 338.6 11.69 331 -999
2008-09-17 07:21:20 51°15.723 2°53.676 338.6 11.69 331 -999
2008-09-17 07:21:30 51°15.751 2°53.65 338.6 11.69 331 -999
2008-09-17 07:21:40 51°15.777 2°53.628 338.6 11.69 331 -999
2008-09-17 07:21:50 51°15.808 2°53.6 338.6 11.69 331 -999
2008-09-17 07:22:00 51°15.837 2°53.575 339.3 11.69 331 -999
2008-09-17 07:22:10 51°15.865 2°53.55 339.3 11.69 331 -999
2008-09-17 07:22:20 51°15.894 2°53.525 339.3 11.69 331 -999
2008-09-17 07:22:30 51°15.923 2°53.5 339.3 11.69 331 -999
2008-09-17 07:22:40 51°15.951 2°53.475 339.3 11.69 331 -999
2008-09-17 07:22:50 51°15.98 2°53.45 339.3 11.69 331 -999
2008-09-17 07:23:00 51°16.005 2°53.426 338.3 11.8 330 -999
2008-09-17 07:23:10 51°16.037 2°53.398 338.3 11.8 330 -999
2008-09-17 07:23:20 51°16.065 2°53.372 338.3 11.8 330 -999
2008-09-17 07:23:30 51°16.094 2°53.347 338.3 11.8 330 -999
2008-09-17 07:23:40 51°16.119 2°53.324 338.3 11.8 330 -999
2008-09-17 07:23:50 51°16.151 2°53.295 338.3 11.8 330 -999
2008-09-17 07:24:00 51°16.18 2°53.271 339.1 11.8 332 -999
2008-09-17 07:24:10 51°16.209 2°53.246 339.1 11.8 332 -999
2008-09-17 07:24:20 51°16.234 2°53.223 339.1 11.8 332 -999
2008-09-17 07:24:30 51°16.265 2°53.195 339.1 11.8 332 -999
2008-09-17 07:24:40 51°16.294 2°53.169 339.1 11.8 332 -999
2008-09-17 07:24:50 51°16.323 2°53.145 339.1 11.8 332 -999
2008-09-17 07:25:00 51°16.351 2°53.12 339.3 11.8 331 -999
2008-09-17 07:25:10 51°16.38 2°53.094 339.3 11.8 331 -999
2008-09-17 07:25:20 51°16.408 2°53.069 339.3 11.8 331 -999
2008-09-17 07:25:30 51°16.437 2°53.043 339.3 11.8 331 -999
2008-09-17 07:25:40 51°16.465 2°53.017 339.3 11.8 331 -999
2008-09-17 07:25:50 51°16.493 2°52.991 339.3 11.8 331 -999
2008-09-17 07:26:00 51°16.518 2°52.968 339 11.69 330 -999
2008-09-17 07:26:10 51°16.547 2°52.944 339 11.69 330 -999
2008-09-17 07:26:20 51°16.579 2°52.917 339 11.69 330 -999
2008-09-17 07:26:30 51°16.607 2°52.894 339 11.69 330 -999
2008-09-17 07:26:40 51°16.636 2°52.871 339 11.69 330 -999
2008-09-17 07:26:50 51°16.662 2°52.85 339 11.69 330 -999
2008-09-17 07:27:00 51°16.694 2°52.824 339.1 11.59 333 -999
2008-09-17 07:27:10 51°16.722 2°52.801 339.1 11.59 333 -999
2008-09-17 07:27:20 51°16.751 2°52.778 339.1 11.59 333 -999
2008-09-17 07:27:30 51°16.776 2°52.758 339.1 11.59 333 -999
2008-09-17 07:27:40 51°16.807 2°52.734 339.1 11.59 333 -999
2008-09-17 07:27:50 51°16.836 2°52.712 339.1 11.59 333 -999
2008-09-17 07:28:00 51°16.864 2°52.689 339.1 11.3 333 -999
2008-09-17 07:28:10 51°16.889 2°52.668 339.1 11.3 333 -999
2008-09-17 07:28:20 51°16.92 2°52.644 339.1 11.3 333 -999
2008-09-17 07:28:30 51°16.948 2°52.62 339.1 11.3 333 -999
2008-09-17 07:28:40 51°16.973 2°52.6 339.1 11.3 333 -999
2008-09-17 07:28:50 51°17.004 2°52.574 339.1 11.3 333 -999
2008-09-17 07:29:00 51°17.032 2°52.551 339.3 11.3 333 -999
2008-09-17 07:29:10 51°17.06 2°52.529 339.3 11.3 333 -999
2008-09-17 07:29:20 51°17.088 2°52.506 339.3 11.3 333 -999
2008-09-17 07:29:30 51°17.116 2°52.483 339.3 11.3 333 -999
2008-09-17 07:29:40 51°17.144 2°52.46 339.3 11.3 333 -999
2008-09-17 07:29:50 51°17.17 2°52.439 339.3 11.3 333 -999
2008-09-17 07:30:00 51°17.201 2°52.413 339.5 11.4 332 -999
2008-09-17 07:30:10 51°17.229 2°52.39 339.5 11.4 332 -999
2008-09-17 07:30:20 51°17.254 2°52.369 339.5 11.4 332 -999
2008-09-17 07:30:30 51°17.285 2°52.344 339.5 11.4 332 -999
2008-09-17 07:30:40 51°17.313 2°52.32 339.5 11.4 332 -999
2008-09-17 07:30:50 51°17.34 2°52.293 339.5 11.4 332 -999
2008-09-17 07:31:00 51°17.363 2°52.267 332.6 11.59 321 -999
2008-09-17 07:31:10 51°17.39 2°52.231 332.6 11.59 321 -999
2008-09-17 07:31:20 51°17.414 2°52.197 332.6 11.59 321 -999
2008-09-17 07:31:30 51°17.438 2°52.162 332.6 11.59 321 -999
2008-09-17 07:31:40 51°17.459 2°52.13 332.6 11.59 321 -999
2008-09-17 07:31:50 51°17.484 2°52.091 332.6 11.59 321 -999
2008-09-17 07:32:00 51°17.508 2°52.055 323.1 11.69 317 -999
2008-09-17 07:32:10 51°17.532 2°52.021 323.1 11.69 317 -999
2008-09-17 07:32:20 51°17.556 2°51.987 323.1 11.69 317 -999
2008-09-17 07:32:30 51°17.581 2°51.954 323.1 11.69 317 -999
2008-09-17 07:32:40 51°17.604 2°51.918 323.1 11.69 317 -999
2008-09-17 07:32:50 51°17.628 2°51.883 323.1 11.69 317 -999
2008-09-17 07:33:00 51°17.652 2°51.849 325.6 11.59 318 -999
2008-09-17 07:33:10 51°17.677 2°51.815 325.6 11.59 318 -999
2008-09-17 07:33:20 51°17.7 2°51.781 325.6 11.59 318 -999
2008-09-17 07:33:30 51°17.725 2°51.747 325.6 11.59 318 -999
2008-09-17 07:33:40 51°17.749 2°51.713 325.6 11.59 318 -999
2008-09-17 07:33:50 51°17.773 2°51.679 325.6 11.59 318 -999
2008-09-17 07:34:00 51°17.797 2°51.645 325.8 11.59 319 -999
2008-09-17 07:34:10 51°17.821 2°51.611 325.8 11.59 319 -999
2008-09-17 07:34:20 51°17.846 2°51.577 325.8 11.59 319 -999
2008-09-17 07:34:30 51°17.87 2°51.543 325.8 11.59 319 -999
2008-09-17 07:34:40 51°17.894 2°51.509 325.8 11.59 319 -999
2008-09-17 07:34:50 51°17.919 2°51.475 325.8 11.59 319 -999
2008-09-17 07:35:00 51°17.941 2°51.445 326.1 11.69 319 -999
2008-09-17 07:35:10 51°17.968 2°51.408 326.1 11.69 319 -999
2008-09-17 07:35:20 51°17.993 2°51.373 326.1 11.69 319 -999
2008-09-17 07:35:30 51°18.018 2°51.339 326.1 11.69 319 -999
2008-09-17 07:35:40 51°18.042 2°51.305 326.1 11.69 319 -999
2008-09-17 07:35:50 51°18.067 2°51.271 326.1 11.69 319 -999
2008-09-17 07:36:00 51°18.092 2°51.237 325.8 11.8 319 -999
2008-09-17 07:36:10 51°18.117 2°51.202 325.8 11.8 319 -999
2008-09-17 07:36:20 51°18.141 2°51.168 325.8 11.8 319 -999
2008-09-17 07:36:30 51°18.166 2°51.133 325.8 11.8 319 -999
2008-09-17 07:36:40 51°18.19 2°51.098 325.8 11.8 319 -999
2008-09-17 07:36:50 51°18.215 2°51.063 325.8 11.8 319 -999
2008-09-17 07:37:00 51°18.237 2°51.032 326.5 11.9 319 -999
2008-09-17 07:37:10 51°18.262 2°50.997 326.5 11.9 319 -999
2008-09-17 07:37:20 51°18.289 2°50.959 326.5 11.9 319 -999
2008-09-17 07:37:30 51°18.314 2°50.924 326.5 11.9 319 -999
2008-09-17 07:37:40 51°18.336 2°50.893 326.5 11.9 319 -999
2008-09-17 07:37:50 51°18.363 2°50.854 326.5 11.9 319 -999
2008-09-17 07:38:00 51°18.388 2°50.819 326.1 11.9 318 -999
2008-09-17 07:38:10 51°18.412 2°50.784 326.1 11.9 318 -999
2008-09-17 07:38:20 51°18.437 2°50.749 326.1 11.9 318 -999
2008-09-17 07:38:30 51°18.463 2°50.716 326.1 11.9 318 -999
2008-09-17 07:38:40 51°18.489 2°50.683 326.1 11.9 318 -999
2008-09-17 07:38:50 51°18.514 2°50.649 326.1 11.9 318 -999
2008-09-17 07:39:00 51°18.539 2°50.615 327.8 11.9 318 -999
2008-09-17 07:39:10 51°18.563 2°50.58 327.8 11.9 318 -999
2008-09-17 07:39:20 51°18.588 2°50.544 327.8 11.9 318 -999
2008-09-17 07:39:30 51°18.612 2°50.509 327.8 11.9 318 -999
2008-09-17 07:39:40 51°18.637 2°50.473 327.8 11.9 318 -999
2008-09-17 07:39:50 51°18.662 2°50.439 327.8 11.9 318 -999
2008-09-17 07:40:00 51°18.685 2°50.409 328.3 11.9 321 -999
2008-09-17 07:40:10 51°18.714 2°50.372 328.3 11.9 321 -999
2008-09-17 07:40:20 51°18.74 2°50.338 328.3 11.9 321 -999
2008-09-17 07:40:30 51°18.765 2°50.304 328.3 11.9 321 -999
2008-09-17 07:40:40 51°18.791 2°50.27 328.3 11.9 321 -999
2008-09-17 07:40:50 51°18.816 2°50.236 328.3 11.9 321 -999
2008-09-17 07:41:00 51°18.841 2°50.201 327.6 12 319 -999
2008-09-17 07:41:10 51°18.866 2°50.166 327.6 12 319 -999
2008-09-17 07:41:20 51°18.891 2°50.131 327.6 12 319 -999
2008-09-17 07:41:30 51°18.916 2°50.096 327.6 12 319 -999
2008-09-17 07:41:40 51°18.941 2°50.06 327.6 12 319 -999
2008-09-17 07:41:50 51°18.966 2°50.024 327.6 12 319 -999
2008-09-17 07:42:00 51°18.99 2°49.989 326 12 318 -999
2008-09-17 07:42:10 51°19.015 2°49.954 326 12 318 -999
2008-09-17 07:42:20 51°19.041 2°49.919 326 12 318 -999
2008-09-17 07:42:30 51°19.063 2°49.888 326 12 318 -999
2008-09-17 07:42:40 51°19.091 2°49.85 326 12 318 -999
2008-09-17 07:42:50 51°19.116 2°49.814 326 12 318 -999
2008-09-17 07:43:00 51°19.141 2°49.778 326.1 12.19 318 -999
2008-09-17 07:43:10 51°19.167 2°49.743 326.1 12.19 318 -999
2008-09-17 07:43:20 51°19.193 2°49.708 326.1 12.19 318 -999
2008-09-17 07:43:30 51°19.219 2°49.673 326.1 12.19 318 -999
2008-09-17 07:43:40 51°19.244 2°49.637 326.1 12.19 318 -999
2008-09-17 07:43:50 51°19.269 2°49.6 326.1 12.19 318 -999
2008-09-17 07:44:00 51°19.294 2°49.563 323.6 12.19 317 -999
2008-09-17 07:44:10 51°19.319 2°49.526 323.6 12.19 317 -999
2008-09-17 07:44:20 51°19.342 2°49.493 323.6 12.19 317 -999
2008-09-17 07:44:30 51°19.37 2°49.454 323.6 12.19 317 -999
2008-09-17 07:44:40 51°19.395 2°49.419 323.6 12.19 317 -999
2008-09-17 07:44:50 51°19.421 2°49.383 323.6 12.19 317 -999
2008-09-17 07:45:00 51°19.447 2°49.348 326.1 12.19 318 -999
2008-09-17 07:45:10 51°19.472 2°49.312 326.1 12.19 318 -999
2008-09-17 07:45:20 51°19.498 2°49.276 326.1 12.19 318 -999
2008-09-17 07:45:30 51°19.522 2°49.241 326.1 12.19 318 -999
2008-09-17 07:45:40 51°19.548 2°49.204 326.1 12.19 318 -999
2008-09-17 07:45:50 51°19.573 2°49.167 326.1 12.19 318 -999
2008-09-17 07:46:00 51°19.598 2°49.131 325.5 12.3 318 -999
2008-09-17 07:46:10 51°19.624 2°49.094 325.5 12.3 318 -999
2008-09-17 07:46:20 51°19.649 2°49.056 325.5 12.3 318 -999
2008-09-17 07:46:30 51°19.673 2°49.017 325.5 12.3 318 -999
2008-09-17 07:46:40 51°19.697 2°48.978 325.5 12.3 318 -999
2008-09-17 07:46:50 51°19.72 2°48.938 325.5 12.3 318 -999
2008-09-17 07:47:00 51°19.744 2°48.899 322.1 12.3 316 -999
2008-09-17 07:47:10 51°19.769 2°48.861 322.1 12.3 316 -999
2008-09-17 07:47:20 51°19.795 2°48.825 322.1 12.3 316 -999
2008-09-17 07:47:30 51°19.82 2°48.788 322.1 12.3 316 -999
2008-09-17 07:47:40 51°19.845 2°48.752 322.1 12.3 316 -999
2008-09-17 07:47:50 51°19.87 2°48.714 322.1 12.3 316 -999
2008-09-17 07:48:00 51°19.895 2°48.677 326.3 12.5 317 -999
2008-09-17 07:48:10 51°19.921 2°48.639 326.3 12.5 317 -999
2008-09-17 07:48:20 51°19.947 2°48.602 326.3 12.5 317 -999
2008-09-17 07:48:30 51°19.972 2°48.564 326.3 12.5 317 -999
2008-09-17 07:48:40 51°19.997 2°48.525 326.3 12.5 317 -999
2008-09-17 07:48:50 51°20.023 2°48.489 326.3 12.5 317 -999
2008-09-17 07:49:00 51°20.051 2°48.457 329.5 12.09 328 -999
2008-09-17 07:49:10 51°20.079 2°48.43 329.5 12.09 328 -999
2008-09-17 07:49:20 51°20.106 2°48.408 329.5 12.09 328 -999
2008-09-17 07:49:30 51°20.139 2°48.383 329.5 12.09 328 -999
2008-09-17 07:49:40 51°20.169 2°48.362 329.5 12.09 328 -999
2008-09-17 07:49:50 51°20.199 2°48.341 329.5 12.09 328 -999
2008-09-17 07:50:00 51°20.229 2°48.323 348.8 11.69 340 -999
2008-09-17 07:50:10 51°20.26 2°48.306 348.8 11.69 340 -999
2008-09-17 07:50:20 51°20.29 2°48.287 348.8 11.69 340 -999
2008-09-17 07:50:30 51°20.32 2°48.267 348.8 11.69 340 -999
2008-09-17 07:50:40 51°20.35 2°48.247 348.8 11.69 340 -999
2008-09-17 07:50:50 51°20.38 2°48.226 348.8 11.69 340 -999
2008-09-17 07:51:00 51°20.41 2°48.205 347.6 11.8 337 -999
2008-09-17 07:51:10 51°20.44 2°48.185 347.6 11.8 337 -999
2008-09-17 07:51:20 51°20.47 2°48.164 347.6 11.8 337 -999
2008-09-17 07:51:30 51°20.5 2°48.143 347.6 11.8 337 -999
2008-09-17 07:51:40 51°20.53 2°48.123 347.6 11.8 337 -999
2008-09-17 07:51:50 51°20.557 2°48.104 347.6 11.8 337 -999
2008-09-17 07:52:00 51°20.591 2°48.083 347.6 11.8 337 -999
2008-09-17 07:52:10 51°20.621 2°48.063 347.6 11.8 337 -999
2008-09-17 07:52:20 51°20.651 2°48.042 347.6 11.8 337 -999
2008-09-17 07:52:30 51°20.681 2°48.023 347.6 11.8 337 -999
2008-09-17 07:52:40 51°20.711 2°48.003 347.6 11.8 337 -999
2008-09-17 07:52:50 51°20.741 2°47.984 347.6 11.8 337 -999
2008-09-17 07:53:00 51°20.769 2°47.968 349.6 11.69 340 -999
2008-09-17 07:53:10 51°20.803 2°47.949 349.6 11.69 340 -999
2008-09-17 07:53:20 51°20.833 2°47.93 349.6 11.69 340 -999
2008-09-17 07:53:30 51°20.863 2°47.909 349.6 11.69 340 -999
2008-09-17 07:53:40 51°20.893 2°47.886 349.6 11.69 340 -999
2008-09-17 07:53:50 51°20.922 2°47.862 349.6 11.69 340 -999
2008-09-17 07:54:00 51°20.951 2°47.837 342.1 12 331 -999
2008-09-17 07:54:10 51°20.98 2°47.811 342.1 12 331 -999
2008-09-17 07:54:20 51°21.009 2°47.783 342.1 12 331 -999
2008-09-17 07:54:30 51°21.037 2°47.753 342.1 12 331 -999
2008-09-17 07:54:40 51°21.064 2°47.722 342.1 12 331 -999
2008-09-17 07:54:50 51°21.092 2°47.688 342.1 12 331 -999
2008-09-17 07:55:00 51°21.119 2°47.656 332.6 12.4 323 -999
2008-09-17 07:55:10 51°21.147 2°47.622 332.6 12.4 323 -999
2008-09-17 07:55:20 51°21.174 2°47.588 332.6 12.4 323 -999
2008-09-17 07:55:30 51°21.201 2°47.553 332.6 12.4 323 -999
2008-09-17 07:55:40 51°21.228 2°47.518 332.6 12.4 323 -999
2008-09-17 07:55:50 51°21.255 2°47.484 332.6 12.4 323 -999
2008-09-17 07:56:00 51°21.283 2°47.45 331 12.5 322 -999
2008-09-17 07:56:10 51°21.31 2°47.415 331 12.5 322 -999
2008-09-17 07:56:20 51°21.337 2°47.379 331 12.5 322 -999
2008-09-17 07:56:30 51°21.363 2°47.342 331 12.5 322 -999
2008-09-17 07:56:40 51°21.389 2°47.303 331 12.5 322 -999
2008-09-17 07:56:50 51°21.415 2°47.266 331 12.5 322 -999
2008-09-17 07:57:00 51°21.442 2°47.23 328.8 12.59 320 -999
2008-09-17 07:57:10 51°21.469 2°47.193 328.8 12.59 320 -999
2008-09-17 07:57:20 51°21.495 2°47.155 328.8 12.59 320 -999
2008-09-17 07:57:30 51°21.521 2°47.116 328.8 12.59 320 -999
2008-09-17 07:57:40 51°21.547 2°47.077 328.8 12.59 320 -999
2008-09-17 07:57:50 51°21.573 2°47.039 328.8 12.59 320 -999
2008-09-17 07:58:00 51°21.6 2°47.001 327.1 12.8 317 -999
2008-09-17 07:58:10 51°21.626 2°46.962 327.1 12.8 317 -999
2008-09-17 07:58:20 51°21.652 2°46.923 327.1 12.8 317 -999
2008-09-17 07:58:30 51°21.677 2°46.883 327.1 12.8 317 -999
2008-09-17 07:58:40 51°21.702 2°46.843 327.1 12.8 317 -999
2008-09-17 07:58:50 51°21.727 2°46.802 327.1 12.8 317 -999
2008-09-17 07:59:00 51°21.752 2°46.762 323.5 12.8 315 -999
2008-09-17 07:59:10 51°21.777 2°46.722 323.5 12.8 315 -999
2008-09-17 07:59:20 51°21.803 2°46.683 323.5 12.8 315 -999
2008-09-17 07:59:30 51°21.829 2°46.644 323.5 12.8 315 -999
2008-09-17 07:59:40 51°21.854 2°46.605 323.5 12.8 315 -999
2008-09-17 07:59:50 51°21.879 2°46.567 323.5 12.8 315 -999
2008-09-17 08:00:00 51°21.904 2°46.529 324.3 12.5 315 -999
2008-09-17 08:00:10 51°21.929 2°46.491 324.3 12.5 315 -999
2008-09-17 08:00:20 51°21.954 2°46.454 324.3 12.5 315 -999
2008-09-17 08:00:30 51°21.978 2°46.417 324.3 12.5 315 -999
2008-09-17 08:00:40 51°22.003 2°46.38 324.3 12.5 315 -999
2008-09-17 08:00:50 51°22.027 2°46.342 324.3 12.5 315 -999
2008-09-17 08:01:00 51°22.052 2°46.306 324.1 12.09 317 -999
2008-09-17 08:01:10 51°22.076 2°46.269 324.1 12.09 317 -999
2008-09-17 08:01:20 51°22.1 2°46.233 324.1 12.09 317 -999
2008-09-17 08:01:30 51°22.125 2°46.197 324.1 12.09 317 -999
2008-09-17 08:01:40 51°22.15 2°46.162 324.1 12.09 317 -999
2008-09-17 08:01:50 51°22.174 2°46.127 324.1 12.09 317 -999
2008-09-17 08:02:00 51°22.199 2°46.091 325.8 12.09 316 -999
2008-09-17 08:02:10 51°22.224 2°46.056 325.8 12.09 316 -999
2008-09-17 08:02:20 51°22.248 2°46.02 325.8 12.09 316 -999
2008-09-17 08:02:30 51°22.273 2°45.984 325.8 12.09 316 -999
2008-09-17 08:02:40 51°22.297 2°45.948 325.8 12.09 316 -999
2008-09-17 08:02:50 51°22.321 2°45.912 325.8 12.09 316 -999
2008-09-17 08:03:00 51°22.345 2°45.875 324.8 12 316 -999
2008-09-17 08:03:10 51°22.37 2°45.839 324.8 12 316 -999
2008-09-17 08:03:20 51°22.394 2°45.803 324.8 12 316 -999
2008-09-17 08:03:30 51°22.418 2°45.766 324.8 12 316 -999
2008-09-17 08:03:40 51°22.442 2°45.73 324.8 12 316 -999
2008-09-17 08:03:50 51°22.466 2°45.693 324.8 12 316 -999
2008-09-17 08:04:00 51°22.491 2°45.658 325.3 12 318 -999
2008-09-17 08:04:10 51°22.516 2°45.623 325.3 12 318 -999
2008-09-17 08:04:20 51°22.541 2°45.588 325.3 12 318 -999
2008-09-17 08:04:30 51°22.565 2°45.552 325.3 12 318 -999
2008-09-17 08:04:40 51°22.589 2°45.515 325.3 12 318 -999
2008-09-17 08:04:50 51°22.613 2°45.476 325.3 12 318 -999
2008-09-17 08:05:00 51°22.636 2°45.438 322.8 12.09 315 -999
2008-09-17 08:05:10 51°22.66 2°45.4 322.8 12.09 315 -999
2008-09-17 08:05:20 51°22.683 2°45.361 322.8 12.09 315 -999
2008-09-17 08:05:30 51°22.707 2°45.321 322.8 12.09 315 -999
2008-09-17 08:05:40 51°22.73 2°45.282 322.8 12.09 315 -999
2008-09-17 08:05:50 51°22.753 2°45.242 322.8 12.09 315 -999
2008-09-17 08:06:00 51°22.776 2°45.203 322 12.3 313 -999
2008-09-17 08:06:10 51°22.799 2°45.163 322 12.3 313 -999
2008-09-17 08:06:20 51°22.821 2°45.122 322 12.3 313 -999
2008-09-17 08:06:30 51°22.843 2°45.081 322 12.3 313 -999
2008-09-17 08:06:40 51°22.865 2°45.038 322 12.3 313 -999
2008-09-17 08:06:50 51°22.887 2°44.997 322 12.3 313 -999
2008-09-17 08:07:00 51°22.91 2°44.957 320.8 12.19 313 -999
2008-09-17 08:07:10 51°22.933 2°44.916 320.8 12.19 313 -999
2008-09-17 08:07:20 51°22.955 2°44.874 320.8 12.19 313 -999
2008-09-17 08:07:30 51°22.977 2°44.833 320.8 12.19 313 -999
2008-09-17 08:07:40 51°23.001 2°44.793 320.8 12.19 313 -999
2008-09-17 08:07:50 51°23.024 2°44.753 320.8 12.19 313 -999
2008-09-17 08:08:00 51°23.047 2°44.714 322.8 12.3 313 -999
2008-09-17 08:08:10 51°23.07 2°44.673 322.8 12.3 313 -999
2008-09-17 08:08:20 51°23.093 2°44.632 322.8 12.3 313 -999
2008-09-17 08:08:30 51°23.115 2°44.59 322.8 12.3 313 -999
2008-09-17 08:08:40 51°23.138 2°44.549 322.8 12.3 313 -999
2008-09-17 08:08:50 51°23.16 2°44.508 322.8 12.3 313 -999
2008-09-17 08:09:00 51°23.183 2°44.467 322.1 12.09 314 -999
2008-09-17 08:09:10 51°23.207 2°44.428 322.1 12.09 314 -999
2008-09-17 08:09:20 51°23.23 2°44.389 322.1 12.09 314 -999
2008-09-17 08:09:30 51°23.252 2°44.348 322.1 12.09 314 -999
2008-09-17 08:09:40 51°23.275 2°44.307 322.1 12.09 314 -999
2008-09-17 08:09:50 51°23.298 2°44.268 322.1 12.09 314 -999
2008-09-17 08:10:00 51°23.321 2°44.228 321.5 12.3 311 -999
2008-09-17 08:10:10 51°23.344 2°44.188 321.5 12.3 311 -999
2008-09-17 08:10:20 51°23.366 2°44.147 321.5 12.3 311 -999
2008-09-17 08:10:30 51°23.388 2°44.105 321.5 12.3 311 -999
2008-09-17 08:10:40 51°23.41 2°44.063 321.5 12.3 311 -999
2008-09-17 08:10:50 51°23.431 2°44.021 321.5 12.3 311 -999
2008-09-17 08:11:00 51°23.453 2°43.979 319.1 12.3 310 -999
2008-09-17 08:11:10 51°23.475 2°43.938 319.1 12.3 310 -999
2008-09-17 08:11:20 51°23.498 2°43.896 319.1 12.3 310 -999
2008-09-17 08:11:30 51°23.52 2°43.855 319.1 12.3 310 -999
2008-09-17 08:11:40 51°23.542 2°43.813 319.1 12.3 310 -999
2008-09-17 08:11:50 51°23.565 2°43.772 319.1 12.3 310 -999
2008-09-17 08:12:00 51°23.588 2°43.732 321.5 12.3 311 -999
2008-09-17 08:12:10 51°23.61 2°43.691 321.5 12.3 311 -999
2008-09-17 08:12:20 51°23.632 2°43.649 321.5 12.3 311 -999
2008-09-17 08:12:30 51°23.655 2°43.61 321.5 12.3 311 -999
2008-09-17 08:12:40 51°23.679 2°43.571 321.5 12.3 311 -999
2008-09-17 08:12:50 51°23.703 2°43.533 321.5 12.3 311 -999
2008-09-17 08:13:00 51°23.726 2°43.494 322.6 12.3 314 -999
2008-09-17 08:13:10 51°23.749 2°43.454 322.6 12.3 314 -999
2008-09-17 08:13:20 51°23.772 2°43.414 322.6 12.3 314 -999
2008-09-17 08:13:30 51°23.795 2°43.374 322.6 12.3 314 -999
2008-09-17 08:13:40 51°23.818 2°43.334 322.6 12.3 314 -999
2008-09-17 08:13:50 51°23.84 2°43.293 322.6 12.3 314 -999
2008-09-17 08:14:00 51°23.863 2°43.252 321.5 12.3 311 -999
2008-09-17 08:14:10 51°23.887 2°43.213 321.5 12.3 311 -999
2008-09-17 08:14:20 51°23.91 2°43.175 321.5 12.3 311 -999
2008-09-17 08:14:30 51°23.934 2°43.135 321.5 12.3 311 -999
2008-09-17 08:14:40 51°23.957 2°43.095 321.5 12.3 311 -999
2008-09-17 08:14:50 51°23.98 2°43.055 321.5 12.3 311 -999
2008-09-17 08:15:00 51°24.002 2°43.014 320.6 12.3 311 -999
2008-09-17 08:15:10 51°24.025 2°42.973 320.6 12.3 311 -999
2008-09-17 08:15:20 51°24.047 2°42.932 320.6 12.3 311 -999
2008-09-17 08:15:30 51°24.069 2°42.891 320.6 12.3 311 -999
2008-09-17 08:15:40 51°24.092 2°42.85 320.6 12.3 311 -999
2008-09-17 08:15:50 51°24.114 2°42.809 320.6 12.3 311 -999
2008-09-17 08:16:00 51°24.137 2°42.768 319.8 12.3 311 -999
2008-09-17 08:16:10 51°24.159 2°42.728 319.8 12.3 311 -999
2008-09-17 08:16:20 51°24.182 2°42.687 319.8 12.3 311 -999
2008-09-17 08:16:30 51°24.205 2°42.647 319.8 12.3 311 -999
2008-09-17 08:16:40 51°24.228 2°42.606 319.8 12.3 311 -999
2008-09-17 08:16:50 51°24.251 2°42.567 319.8 12.3 311 -999
2008-09-17 08:17:00 51°24.273 2°42.527 320.8 12.19 312 -999
2008-09-17 08:17:10 51°24.297 2°42.487 320.8 12.19 312 -999
2008-09-17 08:17:20 51°24.319 2°42.447 320.8 12.19 312 -999
2008-09-17 08:17:30 51°24.342 2°42.408 320.8 12.19 312 -999
2008-09-17 08:17:40 51°24.365 2°42.367 320.8 12.19 312 -999
2008-09-17 08:17:50 51°24.387 2°42.326 320.8 12.19 312 -999
2008-09-17 08:18:00 51°24.409 2°42.286 320.6 12.19 312 -999
2008-09-17 08:18:10 51°24.432 2°42.246 320.6 12.19 312 -999
2008-09-17 08:18:20 51°24.455 2°42.207 320.6 12.19 312 -999
2008-09-17 08:18:30 51°24.478 2°42.168 320.6 12.19 312 -999
2008-09-17 08:18:40 51°24.502 2°42.131 320.6 12.19 312 -999
2008-09-17 08:18:50 51°24.526 2°42.094 320.6 12.19 312 -999
2008-09-17 08:19:00 51°24.55 2°42.057 325.1 12 315 -999
2008-09-17 08:19:10 51°24.574 2°42.02 325.1 12 315 -999
2008-09-17 08:19:20 51°24.599 2°41.982 325.1 12 315 -999
2008-09-17 08:19:30 51°24.623 2°41.945 325.1 12 315 -999
2008-09-17 08:19:40 51°24.646 2°41.908 325.1 12 315 -999
2008-09-17 08:19:50 51°24.669 2°41.871 325.1 12 315 -999
2008-09-17 08:20:00 51°24.693 2°41.833 324.1 12 314 -999
2008-09-17 08:20:10 51°24.715 2°41.794 324.1 12 314 -999
2008-09-17 08:20:20 51°24.738 2°41.755 324.1 12 314 -999
2008-09-17 08:20:30 51°24.76 2°41.717 324.1 12 314 -999
2008-09-17 08:20:40 51°24.783 2°41.678 324.1 12 314 -999
2008-09-17 08:20:50 51°24.806 2°41.641 324.1 12 314 -999
2008-09-17 08:21:00 51°24.829 2°41.603 324.3 12 314 -999
2008-09-17 08:21:10 51°24.853 2°41.566 324.3 12 314 -999
2008-09-17 08:21:20 51°24.876 2°41.528 324.3 12 314 -999
2008-09-17 08:21:30 51°24.899 2°41.49 324.3 12 314 -999
2008-09-17 08:21:40 51°24.923 2°41.453 324.3 12 314 -999
2008-09-17 08:21:50 51°24.945 2°41.414 324.3 12 314 -999
2008-09-17 08:22:00 51°24.968 2°41.375 322.6 12 313 -999
2008-09-17 08:22:10 51°24.99 2°41.336 322.6 12 313 -999
2008-09-17 08:22:20 51°25.013 2°41.297 322.6 12 313 -999
2008-09-17 08:22:30 51°25.035 2°41.257 322.6 12 313 -999
2008-09-17 08:22:40 51°25.058 2°41.217 322.6 12 313 -999
2008-09-17 08:22:50 51°25.08 2°41.178 322.6 12 313 -999
2008-09-17 08:23:00 51°25.104 2°41.14 322.8 12 315 -999
2008-09-17 08:23:10 51°25.128 2°41.103 322.8 12 315 -999
2008-09-17 08:23:20 51°25.152 2°41.067 322.8 12 315 -999
2008-09-17 08:23:30 51°25.176 2°41.031 322.8 12 315 -999
2008-09-17 08:23:40 51°25.2 2°40.994 322.8 12 315 -999
2008-09-17 08:23:50 51°25.223 2°40.956 322.8 12 315 -999
2008-09-17 08:24:00 51°25.246 2°40.918 323.3 12 313 -999
2008-09-17 08:24:10 51°25.269 2°40.878 323.3 12 313 -999
2008-09-17 08:24:20 51°25.291 2°40.838 323.3 12 313 -999
2008-09-17 08:24:30 51°25.314 2°40.798 323.3 12 313 -999
2008-09-17 08:24:40 51°25.337 2°40.759 323.3 12 313 -999
2008-09-17 08:24:50 51°25.361 2°40.72 323.3 12 313 -999
2008-09-17 08:25:00 51°25.384 2°40.682 322.8 12.09 314 -999
2008-09-17 08:25:10 51°25.407 2°40.643 322.8 12.09 314 -999
2008-09-17 08:25:20 51°25.43 2°40.604 322.8 12.09 314 -999
2008-09-17 08:25:30 51°25.453 2°40.566 322.8 12.09 314 -999
2008-09-17 08:25:40 51°25.477 2°40.529 322.8 12.09 314 -999
2008-09-17 08:25:50 51°25.5 2°40.492 322.8 12.09 314 -999
2008-09-17 08:26:00 51°25.524 2°40.456 325.1 11.9 316 -999
2008-09-17 08:26:10 51°25.549 2°40.419 325.1 11.9 316 -999
2008-09-17 08:26:20 51°25.573 2°40.383 325.1 11.9 316 -999
2008-09-17 08:26:30 51°25.598 2°40.347 325.1 11.9 316 -999
2008-09-17 08:26:40 51°25.622 2°40.31 325.1 11.9 316 -999
2008-09-17 08:26:50 51°25.645 2°40.273 325.1 11.9 316 -999
2008-09-17 08:27:00 51°25.669 2°40.236 325.3 11.9 317 -999
2008-09-17 08:27:10 51°25.692 2°40.198 325.3 11.9 317 -999
2008-09-17 08:27:20 51°25.716 2°40.162 325.3 11.9 317 -999
2008-09-17 08:27:30 51°25.741 2°40.126 325.3 11.9 317 -999
2008-09-17 08:27:40 51°25.765 2°40.09 325.3 11.9 317 -999
2008-09-17 08:27:50 51°25.789 2°40.053 325.3 11.9 317 -999
2008-09-17 08:28:00 51°25.813 2°40.015 325.8 12 316 -999
2008-09-17 08:28:10 51°25.836 2°39.978 325.8 12 316 -999
2008-09-17 08:28:20 51°25.86 2°39.94 325.8 12 316 -999
2008-09-17 08:28:30 51°25.883 2°39.902 325.8 12 316 -999
2008-09-17 08:28:40 51°25.907 2°39.865 325.8 12 316 -999
2008-09-17 08:28:50 51°25.931 2°39.828 325.8 12 316 -999
2008-09-17 08:29:00 51°25.956 2°39.791 327.1 12.09 318 -999
2008-09-17 08:29:10 51°25.98 2°39.755 327.1 12.09 318 -999
2008-09-17 08:29:20 51°26.005 2°39.719 327.1 12.09 318 -999
2008-09-17 08:29:30 51°26.029 2°39.683 327.1 12.09 318 -999
2008-09-17 08:29:40 51°26.054 2°39.646 327.1 12.09 318 -999
2008-09-17 08:29:50 51°26.078 2°39.608 327.1 12.09 318 -999
2008-09-17 08:30:00 51°26.101 2°39.57 325.8 12.19 315 -999
2008-09-17 08:30:10 51°26.125 2°39.532 325.8 12.19 315 -999
2008-09-17 08:30:20 51°26.149 2°39.493 325.8 12.19 315 -999
2008-09-17 08:30:30 51°26.174 2°39.456 325.8 12.19 315 -999
2008-09-17 08:30:40 51°26.199 2°39.42 325.8 12.19 315 -999
2008-09-17 08:30:50 51°26.224 2°39.385 325.8 12.19 315 -999
2008-09-17 08:31:00 51°26.249 2°39.348 328.1 12.09 317 -999
2008-09-17 08:31:10 51°26.273 2°39.312 328.1 12.09 317 -999
2008-09-17 08:31:20 51°26.297 2°39.275 328.1 12.09 317 -999
2008-09-17 08:31:30 51°26.321 2°39.236 328.1 12.09 317 -999
2008-09-17 08:31:40 51°26.344 2°39.198 328.1 12.09 317 -999
2008-09-17 08:31:50 51°26.367 2°39.159 328.1 12.09 317 -999
2008-09-17 08:32:00 51°26.391 2°39.121 325.1 12 315 -999
2008-09-17 08:32:10 51°26.414 2°39.082 325.1 12 315 -999
2008-09-17 08:32:20 51°26.437 2°39.044 325.1 12 315 -999
2008-09-17 08:32:30 51°26.461 2°39.005 325.1 12 315 -999
2008-09-17 08:32:40 51°26.484 2°38.967 325.1 12 315 -999
2008-09-17 08:32:50 51°26.508 2°38.931 325.1 12 315 -999
2008-09-17 08:33:00 51°26.532 2°38.895 328 11.8 317 -999
2008-09-17 08:33:10 51°26.556 2°38.86 328 11.8 317 -999
2008-09-17 08:33:20 51°26.58 2°38.825 328 11.8 317 -999
2008-09-17 08:33:30 51°26.604 2°38.79 328 11.8 317 -999
2008-09-17 08:33:40 51°26.628 2°38.755 328 11.8 317 -999
2008-09-17 08:33:50 51°26.652 2°38.72 328 11.8 317 -999
2008-09-17 08:34:00 51°26.676 2°38.684 327.8 11.8 317 -999
2008-09-17 08:34:10 51°26.699 2°38.647 327.8 11.8 317 -999
2008-09-17 08:34:20 51°26.722 2°38.61 327.8 11.8 317 -999
2008-09-17 08:34:30 51°26.746 2°38.573 327.8 11.8 317 -999
2008-09-17 08:34:40 51°26.77 2°38.538 327.8 11.8 317 -999
2008-09-17 08:34:50 51°26.793 2°38.501 327.8 11.8 317 -999
2008-09-17 08:35:00 51°26.817 2°38.466 328 11.8 316 -999
2008-09-17 08:35:10 51°26.841 2°38.431 328 11.8 316 -999
2008-09-17 08:35:20 51°26.865 2°38.395 328 11.8 316 -999
2008-09-17 08:35:30 51°26.889 2°38.36 328 11.8 316 -999
2008-09-17 08:35:40 51°26.913 2°38.325 328 11.8 316 -999
2008-09-17 08:35:50 51°26.937 2°38.289 328 11.8 316 -999
2008-09-17 08:36:00 51°26.96 2°38.253 326.8 11.69 317 -999
2008-09-17 08:36:10 51°26.984 2°38.216 326.8 11.69 317 -999
2008-09-17 08:36:20 51°27.007 2°38.18 326.8 11.69 317 -999
2008-09-17 08:36:30 51°27.03 2°38.143 326.8 11.69 317 -999
2008-09-17 08:36:40 51°27.053 2°38.105 326.8 11.69 317 -999
2008-09-17 08:36:50 51°27.075 2°38.067 326.8 11.69 317 -999
2008-09-17 08:37:00 51°27.098 2°38.029 323.8 11.8 314 -999
2008-09-17 08:37:10 51°27.121 2°37.992 323.8 11.8 314 -999
2008-09-17 08:37:20 51°27.144 2°37.955 323.8 11.8 314 -999
2008-09-17 08:37:30 51°27.168 2°37.918 323.8 11.8 314 -999
2008-09-17 08:37:40 51°27.191 2°37.881 323.8 11.8 314 -999
2008-09-17 08:37:50 51°27.214 2°37.845 323.8 11.8 314 -999
2008-09-17 08:38:00 51°27.238 2°37.809 326.5 11.8 317 -999
2008-09-17 08:38:10 51°27.262 2°37.773 326.5 11.8 317 -999
2008-09-17 08:38:20 51°27.285 2°37.738 326.5 11.8 317 -999
2008-09-17 08:38:30 51°27.309 2°37.701 326.5 11.8 317 -999
2008-09-17 08:38:40 51°27.332 2°37.664 326.5 11.8 317 -999
2008-09-17 08:38:50 51°27.355 2°37.628 326.5 11.8 317 -999
2008-09-17 08:39:00 51°27.378 2°37.59 325.5 11.9 314 -999
2008-09-17 08:39:10 51°27.402 2°37.554 325.5 11.9 314 -999
2008-09-17 08:39:20 51°27.425 2°37.517 325.5 11.9 314 -999
2008-09-17 08:39:30 51°27.448 2°37.48 325.5 11.9 314 -999
2008-09-17 08:39:40 51°27.472 2°37.445 325.5 11.9 314 -999
2008-09-17 08:39:50 51°27.496 2°37.41 325.5 11.9 314 -999
2008-09-17 08:40:00 51°27.52 2°37.375 328 11.8 318 -999
2008-09-17 08:40:10 51°27.545 2°37.34 328 11.8 318 -999
2008-09-17 08:40:20 51°27.568 2°37.304 328 11.8 318 -999
2008-09-17 08:40:30 51°27.591 2°37.266 328 11.8 318 -999
2008-09-17 08:40:40 51°27.614 2°37.229 328 11.8 318 -999
2008-09-17 08:40:50 51°27.637 2°37.192 328 11.8 318 -999
2008-09-17 08:41:00 51°27.66 2°37.154 325 11.69 314 -999
2008-09-17 08:41:10 51°27.683 2°37.117 325 11.69 314 -999
2008-09-17 08:41:20 51°27.706 2°37.08 325 11.69 314 -999
2008-09-17 08:41:30 51°27.73 2°37.044 325 11.69 314 -999
2008-09-17 08:41:40 51°27.753 2°37.008 325 11.69 314 -999
2008-09-17 08:41:50 51°27.777 2°36.971 325 11.69 314 -999
2008-09-17 08:42:00 51°27.8 2°36.933 325.6 11.9 314 -999
2008-09-17 08:42:10 51°27.823 2°36.897 325.6 11.9 314 -999
2008-09-17 08:42:20 51°27.846 2°36.859 325.6 11.9 314 -999
2008-09-17 08:42:30 51°27.869 2°36.821 325.6 11.9 314 -999
2008-09-17 08:42:40 51°27.893 2°36.783 325.6 11.9 314 -999
2008-09-17 08:42:50 51°27.916 2°36.746 325.6 11.9 314 -999
2008-09-17 08:43:00 51°27.939 2°36.709 325.6 11.9 314 -999
2008-09-17 08:43:10 51°27.962 2°36.67 325.6 11.9 314 -999
2008-09-17 08:43:20 51°27.985 2°36.633 325.6 11.9 314 -999
2008-09-17 08:43:30 51°28.008 2°36.595 325.6 11.9 314 -999
2008-09-17 08:43:40 51°28.031 2°36.558 325.6 11.9 314 -999
2008-09-17 08:43:50 51°28.054 2°36.521 325.6 11.9 314 -999
2008-09-17 08:44:00 51°28.077 2°36.483 325.6 11.8 315 -999
2008-09-17 08:44:10 51°28.1 2°36.445 325.6 11.8 315 -999
2008-09-17 08:44:20 51°28.122 2°36.407 325.6 11.8 315 -999
2008-09-17 08:44:30 51°28.145 2°36.369 325.6 11.8 315 -999
2008-09-17 08:44:40 51°28.168 2°36.331 325.6 11.8 315 -999
2008-09-17 08:44:50 51°28.191 2°36.293 325.6 11.8 315 -999
2008-09-17 08:45:00 51°28.214 2°36.255 325.3 12 312 -999
2008-09-17 08:45:10 51°28.237 2°36.218 325.3 12 312 -999
2008-09-17 08:45:20 51°28.261 2°36.18 325.3 12 312 -999
2008-09-17 08:45:30 51°28.285 2°36.144 325.3 12 312 -999
2008-09-17 08:45:40 51°28.31 2°36.108 325.3 12 312 -999
2008-09-17 08:45:50 51°28.336 2°36.079 325.3 12 312 -999
2008-09-17 08:46:00 51°28.363 2°36.054 338.3 11.19 332 -999
2008-09-17 08:46:10 51°28.391 2°36.033 338.3 11.19 332 -999
2008-09-17 08:46:20 51°28.42 2°36.018 338.3 11.19 332 -999
2008-09-17 08:46:30 51°28.449 2°36.006 338.3 11.19 332 -999
2008-09-17 08:46:40 51°28.478 2°36 338.3 11.19 332 -999
2008-09-17 08:46:50 51°28.507 2°35.999 338.3 11.19 332 -999
2008-09-17 08:47:00 51°28.535 2°36.002 8.8 10.19 8 -999
2008-09-17 08:47:10 51°28.564 2°36.009 8.8 10.19 8 -999
2008-09-17 08:47:20 51°28.592 2°36.017 8.8 10.19 8 -999
2008-09-17 08:47:30 51°28.62 2°36.026 8.8 10.19 8 -999
2008-09-17 08:47:40 51°28.647 2°36.036 8.8 10.19 8 -999
2008-09-17 08:47:50 51°28.675 2°36.045 8.8 10.19 8 -999
2008-09-17 08:48:00 51°28.703 2°36.055 18.8 10.19 12 -999
2008-09-17 08:48:10 51°28.731 2°36.064 18.8 10.19 12 -999
2008-09-17 08:48:20 51°28.759 2°36.075 18.8 10.19 12 -999
2008-09-17 08:48:30 51°28.786 2°36.086 18.8 10.19 12 -999
2008-09-17 08:48:40 51°28.814 2°36.098 18.8 10.19 12 -999
2008-09-17 08:48:50 51°28.842 2°36.109 18.8 10.19 12 -999
2008-09-17 08:49:00 51°28.869 2°36.119 20.1 10.3 13 -999
2008-09-17 08:49:10 51°28.897 2°36.129 20.1 10.3 13 -999
2008-09-17 08:49:20 51°28.925 2°36.138 20.1 10.3 13 -999
2008-09-17 08:49:30 51°28.953 2°36.146 20.1 10.3 13 -999
2008-09-17 08:49:40 51°28.981 2°36.155 20.1 10.3 13 -999
2008-09-17 08:49:50 51°29.01 2°36.164 20.1 10.3 13 -999
2008-09-17 08:50:00 51°29.038 2°36.173 18.5 10.3 10 -999
2008-09-17 08:50:10 51°29.065 2°36.182 18.5 10.3 10 -999
2008-09-17 08:50:20 51°29.093 2°36.192 18.5 10.3 10 -999
2008-09-17 08:50:30 51°29.121 2°36.201 18.5 10.3 10 -999
2008-09-17 08:50:40 51°29.149 2°36.21 18.5 10.3 10 -999
2008-09-17 08:50:50 51°29.177 2°36.218 18.5 10.3 10 -999
2008-09-17 08:51:00 51°29.205 2°36.226 17.5 10.3 9 -999
2008-09-17 08:51:10 51°29.233 2°36.235 17.5 10.3 9 -999
2008-09-17 08:51:20 51°29.261 2°36.243 17.5 10.3 9 -999
2008-09-17 08:51:30 51°29.289 2°36.251 17.5 10.3 9 -999
2008-09-17 08:51:40 51°29.318 2°36.258 17.5 10.3 9 -999
2008-09-17 08:51:50 51°29.346 2°36.265 17.5 10.3 9 -999
2008-09-17 08:52:00 51°29.374 2°36.273 16.8 10.3 10 -999
2008-09-17 08:52:10 51°29.403 2°36.281 16.8 10.3 10 -999
2008-09-17 08:52:20 51°29.431 2°36.29 16.8 10.3 10 -999
2008-09-17 08:52:30 51°29.459 2°36.298 16.8 10.3 10 -999
2008-09-17 08:52:40 51°29.488 2°36.307 16.8 10.3 10 -999
2008-09-17 08:52:50 51°29.516 2°36.316 16.8 10.3 10 -999
2008-09-17 08:53:00 51°29.544 2°36.326 18.6 10.4 12 -999
2008-09-17 08:53:10 51°29.572 2°36.335 18.6 10.4 12 -999
2008-09-17 08:53:20 51°29.6 2°36.344 18.6 10.4 12 -999
2008-09-17 08:53:30 51°29.629 2°36.352 18.6 10.4 12 -999
2008-09-17 08:53:40 51°29.657 2°36.36 18.6 10.4 12 -999
2008-09-17 08:53:50 51°29.685 2°36.368 18.6 10.4 12 -999
2008-09-17 08:54:00 51°29.714 2°36.377 16.1 10.5 11 -999
2008-09-17 08:54:10 51°29.742 2°36.387 16.1 10.5 11 -999
2008-09-17 08:54:20 51°29.77 2°36.398 16.1 10.5 11 -999
2008-09-17 08:54:30 51°29.798 2°36.408 16.1 10.5 11 -999
2008-09-17 08:54:40 51°29.826 2°36.418 16.1 10.5 11 -999
2008-09-17 08:54:50 51°29.855 2°36.429 16.1 10.5 11 -999
2008-09-17 08:55:00 51°29.883 2°36.44 18.8 10.59 14 -999
2008-09-17 08:55:10 51°29.912 2°36.451 18.8 10.59 14 -999
2008-09-17 08:55:20 51°29.94 2°36.461 18.8 10.59 14 -999
2008-09-17 08:55:30 51°29.969 2°36.469 18.8 10.59 14 -999
2008-09-17 08:55:40 51°29.997 2°36.477 18.8 10.59 14 -999
2008-09-17 08:55:50 51°30.026 2°36.485 18.8 10.59 14 -999
2008-09-17 08:56:00 51°30.054 2°36.493 16.8 10.5 10 -999
2008-09-17 08:56:10 51°30.083 2°36.501 16.8 10.5 10 -999
2008-09-17 08:56:20 51°30.112 2°36.509 16.8 10.5 10 -999
2008-09-17 08:56:30 51°30.141 2°36.517 16.8 10.5 10 -999
2008-09-17 08:56:40 51°30.169 2°36.527 16.8 10.5 10 -999
2008-09-17 08:56:50 51°30.198 2°36.538 16.8 10.5 10 -999
2008-09-17 08:57:00 51°30.226 2°36.549 19 10.5 15 -999
2008-09-17 08:57:10 51°30.254 2°36.56 19 10.5 15 -999
2008-09-17 08:57:20 51°30.283 2°36.57 19 10.5 15 -999
2008-09-17 08:57:30 51°30.311 2°36.58 19 10.5 15 -999
2008-09-17 08:57:40 51°30.34 2°36.588 19 10.5 15 -999
2008-09-17 08:57:50 51°30.368 2°36.597 19 10.5 15 -999
2008-09-17 08:58:00 51°30.397 2°36.606 15.9 10.5 10 -999
2008-09-17 08:58:10 51°30.426 2°36.614 15.9 10.5 10 -999
2008-09-17 08:58:20 51°30.454 2°36.622 15.9 10.5 10 -999
2008-09-17 08:58:30 51°30.483 2°36.63 15.9 10.5 10 -999
2008-09-17 08:58:40 51°30.512 2°36.641 15.9 10.5 10 -999
2008-09-17 08:58:50 51°30.54 2°36.651 15.9 10.5 10 -999
2008-09-17 08:59:00 51°30.568 2°36.662 18.1 10.5 14 -999
2008-09-17 08:59:10 51°30.597 2°36.673 18.1 10.5 14 -999
2008-09-17 08:59:20 51°30.625 2°36.685 18.1 10.5 14 -999
2008-09-17 08:59:30 51°30.654 2°36.696 18.1 10.5 14 -999
2008-09-17 08:59:40 51°30.682 2°36.706 18.1 10.5 14 -999
2008-09-17 08:59:50 51°30.711 2°36.714 18.1 10.5 14 -999
2008-09-17 09:00:00 51°30.74 2°36.724 16.6 10.5 10 -999
2008-09-17 09:00:10 51°30.768 2°36.734 16.6 10.5 10 -999
2008-09-17 09:00:20 51°30.797 2°36.744 16.6 10.5 10 -999
2008-09-17 09:00:30 51°30.825 2°36.753 16.6 10.5 10 -999
2008-09-17 09:00:40 51°30.854 2°36.765 16.6 10.5 10 -999
2008-09-17 09:00:50 51°30.882 2°36.775 16.6 10.5 10 -999
2008-09-17 09:01:00 51°30.911 2°36.786 17.6 10.5 13 -999
2008-09-17 09:01:10 51°30.939 2°36.795 17.6 10.5 13 -999
2008-09-17 09:01:20 51°30.968 2°36.806 17.6 10.5 13 -999
2008-09-17 09:01:30 51°30.996 2°36.814 17.6 10.5 13 -999
2008-09-17 09:01:40 51°31.025 2°36.823 17.6 10.5 13 -999
2008-09-17 09:01:50 51°31.054 2°36.831 17.6 10.5 13 -999
2008-09-17 09:02:00 51°31.083 2°36.84 15.5 10.5 11 -999
2008-09-17 09:02:10 51°31.112 2°36.849 15.5 10.5 11 -999
2008-09-17 09:02:20 51°31.14 2°36.858 15.5 10.5 11 -999
2008-09-17 09:02:30 51°31.169 2°36.867 15.5 10.5 11 -999
2008-09-17 09:02:40 51°31.198 2°36.876 15.5 10.5 11 -999
2008-09-17 09:02:50 51°31.227 2°36.885 15.5 10.5 11 -999
2008-09-17 09:03:00 51°31.255 2°36.896 15.9 10.59 13 -999
2008-09-17 09:03:10 51°31.283 2°36.907 15.9 10.59 13 -999
2008-09-17 09:03:20 51°31.311 2°36.919 15.9 10.59 13 -999
2008-09-17 09:03:30 51°31.339 2°36.932 15.9 10.59 13 -999
2008-09-17 09:03:40 51°31.367 2°36.947 15.9 10.59 13 -999
2008-09-17 09:03:50 51°31.394 2°36.962 15.9 10.59 13 -999
2008-09-17 09:04:00 51°31.421 2°36.978 22.8 10.4 21 -999
2008-09-17 09:04:10 51°31.449 2°36.994 22.8 10.4 21 -999
2008-09-17 09:04:20 51°31.476 2°37.008 22.8 10.4 21 -999
2008-09-17 09:04:30 51°31.504 2°37.022 22.8 10.4 21 -999
2008-09-17 09:04:40 51°31.532 2°37.034 22.8 10.4 21 -999
2008-09-17 09:04:50 51°31.559 2°37.047 22.8 10.4 21 -999
2008-09-17 09:05:00 51°31.587 2°37.06 20.8 10.4 17 -999
2008-09-17 09:05:10 51°31.615 2°37.073 20.8 10.4 17 -999
2008-09-17 09:05:20 51°31.643 2°37.086 20.8 10.4 17 -999
2008-09-17 09:05:30 51°31.671 2°37.098 20.8 10.4 17 -999
2008-09-17 09:05:40 51°31.698 2°37.112 20.8 10.4 17 -999
2008-09-17 09:05:50 51°31.726 2°37.124 20.8 10.4 17 -999
2008-09-17 09:06:00 51°31.754 2°37.136 19.5 10.4 17 -999
2008-09-17 09:06:10 51°31.782 2°37.149 19.5 10.4 17 -999
2008-09-17 09:06:20 51°31.81 2°37.163 19.5 10.4 17 -999
2008-09-17 09:06:30 51°31.837 2°37.178 19.5 10.4 17 -999
2008-09-17 09:06:40 51°31.864 2°37.194 19.5 10.4 17 -999
2008-09-17 09:06:50 51°31.892 2°37.21 19.5 10.4 17 -999
2008-09-17 09:07:00 51°31.919 2°37.225 23.8 10.5 20 -999
2008-09-17 09:07:10 51°31.947 2°37.24 23.8 10.5 20 -999
2008-09-17 09:07:20 51°31.974 2°37.255 23.8 10.5 20 -999
2008-09-17 09:07:30 51°32.001 2°37.27 23.8 10.5 20 -999
2008-09-17 09:07:40 51°32.029 2°37.286 23.8 10.5 20 -999
2008-09-17 09:07:50 51°32.056 2°37.3 23.8 10.5 20 -999
2008-09-17 09:08:00 51°32.084 2°37.314 22.6 10.5 16 -999
2008-09-17 09:08:10 51°32.112 2°37.327 22.6 10.5 16 -999
2008-09-17 09:08:20 51°32.14 2°37.339 22.6 10.5 16 -999
2008-09-17 09:08:30 51°32.168 2°37.351 22.6 10.5 16 -999
2008-09-17 09:08:40 51°32.196 2°37.363 22.6 10.5 16 -999
2008-09-17 09:08:50 51°32.224 2°37.375 22.6 10.5 16 -999
2008-09-17 09:09:00 51°32.252 2°37.388 19.6 10.5 15 -999
2008-09-17 09:09:10 51°32.28 2°37.401 19.6 10.5 15 -999
2008-09-17 09:09:20 51°32.307 2°37.416 19.6 10.5 15 -999
2008-09-17 09:09:30 51°32.335 2°37.431 19.6 10.5 15 -999
2008-09-17 09:09:40 51°32.363 2°37.445 19.6 10.5 15 -999
2008-09-17 09:09:50 51°32.391 2°37.458 19.6 10.5 15 -999
2008-09-17 09:10:00 51°32.419 2°37.47 20.1 10.5 16 -999
2008-09-17 09:10:10 51°32.447 2°37.483 20.1 10.5 16 -999
2008-09-17 09:10:20 51°32.474 2°37.496 20.1 10.5 16 -999
2008-09-17 09:10:30 51°32.502 2°37.509 20.1 10.5 16 -999
2008-09-17 09:10:40 51°32.53 2°37.523 20.1 10.5 16 -999
2008-09-17 09:10:50 51°32.557 2°37.537 20.1 10.5 16 -999
2008-09-17 09:11:00 51°32.585 2°37.552 22.1 10.4 18 -999
2008-09-17 09:11:10 51°32.612 2°37.567 22.1 10.4 18 -999
2008-09-17 09:11:20 51°32.64 2°37.581 22.1 10.4 18 -999
2008-09-17 09:11:30 51°32.667 2°37.596 22.1 10.4 18 -999
2008-09-17 09:11:40 51°32.694 2°37.611 22.1 10.4 18 -999
2008-09-17 09:11:50 51°32.722 2°37.626 22.1 10.4 18 -999
2008-09-17 09:12:00 51°32.75 2°37.64 22.3 10.5 18 -999
2008-09-17 09:12:10 51°32.777 2°37.655 22.3 10.5 18 -999
2008-09-17 09:12:20 51°32.805 2°37.669 22.3 10.5 18 -999
2008-09-17 09:12:30 51°32.833 2°37.683 22.3 10.5 18 -999
2008-09-17 09:12:40 51°32.86 2°37.698 22.3 10.5 18 -999
2008-09-17 09:12:50 51°32.888 2°37.713 22.3 10.5 18 -999
2008-09-17 09:13:00 51°32.916 2°37.727 22.8 10.5 17 -999
2008-09-17 09:13:10 51°32.943 2°37.742 22.8 10.5 17 -999
2008-09-17 09:13:20 51°32.971 2°37.756 22.8 10.5 17 -999
2008-09-17 09:13:30 51°32.998 2°37.77 22.8 10.5 17 -999
2008-09-17 09:13:40 51°33.025 2°37.785 22.8 10.5 17 -999
2008-09-17 09:13:50 51°33.053 2°37.799 22.8 10.5 17 -999
2008-09-17 09:14:00 51°33.08 2°37.813 22.3 10.3 18 -999
2008-09-17 09:14:10 51°33.108 2°37.826 22.3 10.3 18 -999
2008-09-17 09:14:20 51°33.135 2°37.838 22.3 10.3 18 -999
2008-09-17 09:14:30 51°33.163 2°37.85 22.3 10.3 18 -999
2008-09-17 09:14:40 51°33.191 2°37.862 22.3 10.3 18 -999
2008-09-17 09:14:50 51°33.219 2°37.873 22.3 10.3 18 -999
2008-09-17 09:15:00 51°33.247 2°37.884 19.1 10.3 14 -999
2008-09-17 09:15:10 51°33.275 2°37.895 19.1 10.3 14 -999
2008-09-17 09:15:20 51°33.303 2°37.908 19.1 10.3 14 -999
2008-09-17 09:15:30 51°33.33 2°37.921 19.1 10.3 14 -999
2008-09-17 09:15:40 51°33.358 2°37.934 19.1 10.3 14 -999
2008-09-17 09:15:50 51°33.388 2°37.946 19.1 10.3 14 -999
2008-09-17 09:16:00 51°33.413 2°37.957 19.3 10.3 14 -999
2008-09-17 09:16:10 51°33.441 2°37.969 19.3 10.3 14 -999
2008-09-17 09:16:20 51°33.469 2°37.98 19.3 10.3 14 -999
2008-09-17 09:16:30 51°33.496 2°37.993 19.3 10.3 14 -999
2008-09-17 09:16:40 51°33.524 2°38.005 19.3 10.3 14 -999
2008-09-17 09:16:50 51°33.552 2°38.018 19.3 10.3 14 -999
2008-09-17 09:17:00 51°33.579 2°38.03 20.1 10.3 16 -999
2008-09-17 09:17:10 51°33.606 2°38.044 20.1 10.3 16 -999
2008-09-17 09:17:20 51°33.633 2°38.058 20.1 10.3 16 -999
2008-09-17 09:17:30 51°33.66 2°38.072 20.1 10.3 16 -999
2008-09-17 09:17:40 51°33.687 2°38.088 20.1 10.3 16 -999
2008-09-17 09:17:50 51°33.714 2°38.104 20.1 10.3 16 -999
2008-09-17 09:18:00 51°33.74 2°38.121 25.1 10.3 22 -999
2008-09-17 09:18:10 51°33.767 2°38.138 25.1 10.3 22 -999
2008-09-17 09:18:20 51°33.794 2°38.155 25.1 10.3 22 -999
2008-09-17 09:18:30 51°33.821 2°38.171 25.1 10.3 22 -999
2008-09-17 09:18:40 51°33.848 2°38.185 25.1 10.3 22 -999
2008-09-17 09:18:50 51°33.875 2°38.199 25.1 10.3 22 -999
2008-09-17 09:19:00 51°33.902 2°38.213 22.1 10.3 18 -999
2008-09-17 09:19:10 51°33.93 2°38.227 22.1 10.3 18 -999
2008-09-17 09:19:20 51°33.96 2°38.242 22.1 10.3 18 -999
2008-09-17 09:19:30 51°33.984 2°38.255 22.1 10.3 18 -999
2008-09-17 09:19:40 51°34.012 2°38.27 22.1 10.3 18 -999
2008-09-17 09:19:50 51°34.039 2°38.284 22.1 10.3 18 -999
2008-09-17 09:20:00 51°34.069 2°38.3 22.6 10.4 19 -999
2008-09-17 09:20:10 51°34.093 2°38.314 22.6 10.4 19 -999
2008-09-17 09:20:20 51°34.12 2°38.33 22.6 10.4 19 -999
2008-09-17 09:20:30 51°34.147 2°38.346 22.6 10.4 19 -999
2008-09-17 09:20:40 51°34.174 2°38.362 22.6 10.4 19 -999
2008-09-17 09:20:50 51°34.203 2°38.382 22.6 10.4 19 -999
2008-09-17 09:21:00 51°34.228 2°38.397 25.6 10.4 21 -999
2008-09-17 09:21:10 51°34.255 2°38.414 25.6 10.4 21 -999
2008-09-17 09:21:20 51°34.281 2°38.431 25.6 10.4 21 -999
2008-09-17 09:21:30 51°34.309 2°38.446 25.6 10.4 21 -999
2008-09-17 09:21:40 51°34.336 2°38.46 25.6 10.4 21 -999
2008-09-17 09:21:50 51°34.364 2°38.473 25.6 10.4 21 -999
2008-09-17 09:22:00 51°34.395 2°38.486 20 10.4 16 -999
2008-09-17 09:22:10 51°34.422 2°38.499 20 10.4 16 -999
2008-09-17 09:22:20 51°34.447 2°38.511 20 10.4 16 -999
2008-09-17 09:22:30 51°34.475 2°38.524 20 10.4 16 -999
2008-09-17 09:22:40 51°34.506 2°38.539 20 10.4 16 -999
2008-09-17 09:22:50 51°34.531 2°38.55 20 10.4 16 -999
2008-09-17 09:23:00 51°34.559 2°38.564 21 10.4 16 -999
2008-09-17 09:23:10 51°34.589 2°38.577 21 10.4 16 -999
2008-09-17 09:23:20 51°34.614 2°38.589 21 10.4 16 -999
2008-09-17 09:23:30 51°34.642 2°38.601 21 10.4 16 -999
2008-09-17 09:23:40 51°34.67 2°38.614 21 10.4 16 -999
2008-09-17 09:23:50 51°34.701 2°38.628 21 10.4 16 -999
2008-09-17 09:24:00 51°34.726 2°38.639 20.8 10.3 15 -999
2008-09-17 09:24:10 51°34.754 2°38.651 20.8 10.3 15 -999
2008-09-17 09:24:20 51°34.784 2°38.665 20.8 10.3 15 -999
2008-09-17 09:24:30 51°34.809 2°38.676 20.8 10.3 15 -999
2008-09-17 09:24:40 51°34.837 2°38.689 20.8 10.3 15 -999
2008-09-17 09:24:50 51°34.867 2°38.704 20.8 10.3 15 -999
2008-09-17 09:25:00 51°34.892 2°38.717 22.3 10.4 18 -999
2008-09-17 09:25:10 51°34.919 2°38.732 22.3 10.4 18 -999
2008-09-17 09:25:20 51°34.946 2°38.747 22.3 10.4 18 -999
2008-09-17 09:25:30 51°34.976 2°38.764 22.3 10.4 18 -999
2008-09-17 09:25:40 51°35.003 2°38.778 22.3 10.4 18 -999
2008-09-17 09:25:50 51°35.028 2°38.791 22.3 10.4 18 -999
2008-09-17 09:26:00 51°35.055 2°38.806 22.8 10.4 18 -999
2008-09-17 09:26:10 51°35.085 2°38.822 22.8 10.4 18 -999
2008-09-17 09:26:20 51°35.11 2°38.836 22.8 10.4 18 -999
2008-09-17 09:26:30 51°35.137 2°38.851 22.8 10.4 18 -999
2008-09-17 09:26:40 51°35.167 2°38.867 22.8 10.4 18 -999
2008-09-17 09:26:50 51°35.195 2°38.881 22.8 10.4 18 -999
2008-09-17 09:27:00 51°35.22 2°38.894 22.8 10.5 16 -999
2008-09-17 09:27:10 51°35.248 2°38.906 22.8 10.5 16 -999
2008-09-17 09:27:20 51°35.276 2°38.919 22.8 10.5 16 -999
2008-09-17 09:27:30 51°35.307 2°38.932 22.8 10.5 16 -999
2008-09-17 09:27:40 51°35.332 2°38.944 22.8 10.5 16 -999
2008-09-17 09:27:50 51°35.36 2°38.958 22.8 10.5 16 -999
2008-09-17 09:28:00 51°35.388 2°38.97 21.3 10.5 14 -999
2008-09-17 09:28:10 51°35.416 2°38.982 21.3 10.5 14 -999
2008-09-17 09:28:20 51°35.447 2°38.995 21.3 10.5 14 -999
2008-09-17 09:28:30 51°35.473 2°39.005 21.3 10.5 14 -999
2008-09-17 09:28:40 51°35.504 2°39.018 21.3 10.5 14 -999
2008-09-17 09:28:50 51°35.532 2°39.031 21.3 10.5 14 -999
2008-09-17 09:29:00 51°35.557 2°39.043 21.6 10.5 16 -999
2008-09-17 09:29:10 51°35.587 2°39.059 21.6 10.5 16 -999
2008-09-17 09:29:20 51°35.615 2°39.072 21.6 10.5 16 -999
2008-09-17 09:29:30 51°35.64 2°39.085 21.6 10.5 16 -999
2008-09-17 09:29:40 51°35.667 2°39.099 21.6 10.5 16 -999
2008-09-17 09:29:50 51°35.698 2°39.115 21.6 10.5 16 -999
2008-09-17 09:30:00 51°35.725 2°39.129 22.8 10.5 17 -999
2008-09-17 09:30:10 51°35.753 2°39.142 22.8 10.5 17 -999
2008-09-17 09:30:20 51°35.778 2°39.153 22.8 10.5 17 -999
2008-09-17 09:30:30 51°35.809 2°39.166 22.8 10.5 17 -999
2008-09-17 09:30:40 51°35.837 2°39.178 22.8 10.5 17 -999
2008-09-17 09:30:50 51°35.862 2°39.188 22.8 10.5 17 -999
2008-09-17 09:31:00 51°35.893 2°39.202 19.8 10.5 17 -999
2008-09-17 09:31:10 51°35.921 2°39.215 19.8 10.5 17 -999
2008-09-17 09:31:20 51°35.949 2°39.228 19.8 10.5 17 -999
2008-09-17 09:31:30 51°35.977 2°39.24 19.8 10.5 17 -999
2008-09-17 09:31:40 51°36.003 2°39.251 19.8 10.5 17 -999
2008-09-17 09:31:50 51°36.031 2°39.264 19.8 10.5 17 -999
2008-09-17 09:32:00 51°36.061 2°39.279 21.3 10.5 19 -999
2008-09-17 09:32:10 51°36.089 2°39.293 21.3 10.5 19 -999
2008-09-17 09:32:20 51°36.117 2°39.305 21.3 10.5 19 -999
2008-09-17 09:32:30 51°36.142 2°39.317 21.3 10.5 19 -999
2008-09-17 09:32:40 51°36.17 2°39.331 21.3 10.5 19 -999
2008-09-17 09:32:50 51°36.2 2°39.345 21.3 10.5 19 -999
2008-09-17 09:33:00 51°36.228 2°39.358 20.8 10.5 16 -999
2008-09-17 09:33:10 51°36.256 2°39.371 20.8 10.5 16 -999
2008-09-17 09:33:20 51°36.281 2°39.384 20.8 10.5 16 -999
2008-09-17 09:33:30 51°36.312 2°39.4 20.8 10.5 16 -999
2008-09-17 09:33:40 51°36.339 2°39.415 20.8 10.5 16 -999
2008-09-17 09:33:50 51°36.364 2°39.428 20.8 10.5 16 -999
2008-09-17 09:34:00 51°36.395 2°39.444 22.8 10.4 18 -999
2008-09-17 09:34:10 51°36.422 2°39.458 22.8 10.4 18 -999
2008-09-17 09:34:20 51°36.45 2°39.471 22.8 10.4 18 -999
2008-09-17 09:34:30 51°36.478 2°39.486 22.8 10.4 18 -999
2008-09-17 09:34:40 51°36.503 2°39.499 22.8 10.4 18 -999
2008-09-17 09:34:50 51°36.533 2°39.514 22.8 10.4 18 -999
2008-09-17 09:35:00 51°36.561 2°39.528 22.5 10.5 17 -999
2008-09-17 09:35:10 51°36.589 2°39.542 22.5 10.5 17 -999
2008-09-17 09:35:20 51°36.614 2°39.555 22.5 10.5 17 -999
2008-09-17 09:35:30 51°36.644 2°39.57 22.5 10.5 17 -999
2008-09-17 09:35:40 51°36.672 2°39.584 22.5 10.5 17 -999
2008-09-17 09:35:50 51°36.697 2°39.597 22.5 10.5 17 -999
2008-09-17 09:36:00 51°36.728 2°39.612 22.3 10.5 17 -999
2008-09-17 09:36:10 51°36.756 2°39.626 22.3 10.5 17 -999
2008-09-17 09:36:20 51°36.784 2°39.64 22.3 10.5 17 -999
2008-09-17 09:36:30 51°36.809 2°39.652 22.3 10.5 17 -999
2008-09-17 09:36:40 51°36.84 2°39.667 22.3 10.5 17 -999
2008-09-17 09:36:50 51°36.867 2°39.681 22.3 10.5 17 -999
2008-09-17 09:37:00 51°36.896 2°39.695 22 10.5 16 -999
2008-09-17 09:37:10 51°36.921 2°39.708 22 10.5 16 -999
2008-09-17 09:37:20 51°36.948 2°39.722 22 10.5 16 -999
2008-09-17 09:37:30 51°36.979 2°39.737 22 10.5 16 -999
2008-09-17 09:37:40 51°37.004 2°39.748 22 10.5 16 -999
2008-09-17 09:37:50 51°37.035 2°39.763 22 10.5 16 -999
2008-09-17 09:38:00 51°37.063 2°39.775 21 10.69 15 -999
2008-09-17 09:38:10 51°37.091 2°39.789 21 10.69 15 -999
2008-09-17 09:38:20 51°37.116 2°39.801 21 10.69 15 -999
2008-09-17 09:38:30 51°37.144 2°39.814 21 10.69 15 -999
2008-09-17 09:38:40 51°37.175 2°39.829 21 10.69 15 -999
2008-09-17 09:38:50 51°37.202 2°39.843 21 10.69 15 -999
2008-09-17 09:39:00 51°37.23 2°39.856 21.6 10.5 16 -999
2008-09-17 09:39:10 51°37.259 2°39.868 21.6 10.5 16 -999
2008-09-17 09:39:20 51°37.287 2°39.88 21.6 10.5 16 -999
2008-09-17 09:39:30 51°37.315 2°39.891 21.6 10.5 16 -999
2008-09-17 09:39:40 51°37.344 2°39.903 21.6 10.5 16 -999
2008-09-17 09:39:50 51°37.372 2°39.915 21.6 10.5 16 -999
2008-09-17 09:40:00 51°37.397 2°39.926 19.3 10.5 16 -999
2008-09-17 09:40:10 51°37.425 2°39.938 19.3 10.5 16 -999
2008-09-17 09:40:20 51°37.456 2°39.953 19.3 10.5 16 -999
2008-09-17 09:40:30 51°37.483 2°39.967 19.3 10.5 16 -999
2008-09-17 09:40:40 51°37.508 2°39.98 19.3 10.5 16 -999
2008-09-17 09:40:50 51°37.539 2°39.995 19.3 10.5 16 -999
2008-09-17 09:41:00 51°37.567 2°40.008 20.8 10.5 16 -999
2008-09-17 09:41:10 51°37.595 2°40.021 20.8 10.5 16 -999
2008-09-17 09:41:20 51°37.62 2°40.033 20.8 10.5 16 -999
2008-09-17 09:41:30 51°37.651 2°40.049 20.8 10.5 16 -999
2008-09-17 09:41:40 51°37.679 2°40.062 20.8 10.5 16 -999
2008-09-17 09:41:50 51°37.703 2°40.074 20.8 10.5 16 -999
2008-09-17 09:42:00 51°37.732 2°40.087 21.5 10.59 16 -999
2008-09-17 09:42:10 51°37.763 2°40.101 21.5 10.59 16 -999
2008-09-17 09:42:20 51°37.79 2°40.115 21.5 10.59 16 -999
2008-09-17 09:42:30 51°37.815 2°40.127 21.5 10.59 16 -999
2008-09-17 09:42:40 51°37.842 2°40.143 21.5 10.59 16 -999
2008-09-17 09:42:50 51°37.87 2°40.165 21.5 10.59 16 -999
2008-09-17 09:43:00 51°37.893 2°40.19 32.2 10.19 35 -999
2008-09-17 09:43:10 51°37.916 2°40.218 32.2 10.19 35 -999
2008-09-17 09:43:20 51°37.937 2°40.248 32.2 10.19 35 -999
2008-09-17 09:43:30 51°37.955 2°40.277 32.2 10.19 35 -999
2008-09-17 09:43:40 51°37.974 2°40.309 32.2 10.19 35 -999
2008-09-17 09:43:50 51°37.995 2°40.347 32.2 10.19 35 -999
2008-09-17 09:44:00 51°38.012 2°40.384 50.3 10.3 54 -999
2008-09-17 09:44:10 51°38.026 2°40.417 50.3 10.3 54 -999
2008-09-17 09:44:20 51°38.042 2°40.455 50.3 10.3 54 -999
2008-09-17 09:44:30 51°38.058 2°40.499 50.3 10.3 54 -999
2008-09-17 09:44:40 51°38.07 2°40.54 50.3 10.3 54 -999
2008-09-17 09:44:50 51°38.081 2°40.577 50.3 10.3 54 -999
2008-09-17 09:45:00 51°38.094 2°40.623 63.2 10.3 68 -999
2008-09-17 09:45:10 51°38.103 2°40.667 63.2 10.3 68 -999
2008-09-17 09:45:20 51°38.11 2°40.712 63.2 10.3 68 -999
2008-09-17 09:45:30 51°38.116 2°40.752 63.2 10.3 68 -999
2008-09-17 09:45:40 51°38.121 2°40.798 63.2 10.3 68 -999
2008-09-17 09:45:50 51°38.121 2°40.849 63.2 10.3 68 -999
2008-09-17 09:46:00 51°38.12 2°40.897 84.7 10.59 94 -999
2008-09-17 09:46:10 51°38.117 2°40.944 84.7 10.59 94 -999
2008-09-17 09:46:20 51°38.113 2°40.991 84.7 10.59 94 -999
2008-09-17 09:46:30 51°38.109 2°41.033 84.7 10.59 94 -999
2008-09-17 09:46:40 51°38.105 2°41.08 84.7 10.59 94 -999
2008-09-17 09:46:50 51°38.099 2°41.132 84.7 10.59 94 -999
2008-09-17 09:47:00 51°38.096 2°41.174 91.5 10.69 98 -999
2008-09-17 09:47:10 51°38.092 2°41.221 91.5 10.69 98 -999
2008-09-17 09:47:20 51°38.087 2°41.274 91.5 10.69 98 -999
2008-09-17 09:47:30 51°38.084 2°41.321 91.5 10.69 98 -999
2008-09-17 09:47:40 51°38.081 2°41.364 91.5 10.69 98 -999
2008-09-17 09:47:50 51°38.079 2°41.411 91.5 10.69 98 -999
2008-09-17 09:48:00 51°38.075 2°41.463 88.9 10.59 97 -999